createdAt,value
2017-12-25T00:01:50.371Z,9.47
2017-12-25T00:04:17.851Z,9.46
2017-12-25T00:06:46.317Z,9.50
2017-12-25T00:09:13.776Z,9.51
2017-12-25T00:11:41.243Z,9.50
2017-12-25T00:14:08.687Z,9.48
2017-12-25T00:16:36.140Z,9.45
2017-12-25T00:19:03.584Z,9.41
2017-12-25T00:21:31.039Z,9.43
2017-12-25T00:23:58.503Z,9.43
2017-12-25T00:26:26.012Z,9.41
2017-12-25T00:28:53.470Z,9.45
2017-12-25T00:31:20.914Z,9.43
2017-12-25T00:33:48.415Z,9.39
2017-12-25T00:36:15.880Z,9.45
2017-12-25T00:38:43.351Z,9.48
2017-12-25T00:41:10.815Z,9.44
2017-12-25T00:43:38.278Z,9.43
2017-12-25T00:46:05.736Z,9.41
2017-12-25T00:48:33.217Z,9.47
2017-12-25T00:51:00.664Z,9.53
2017-12-25T00:53:28.129Z,9.50
2017-12-25T00:55:55.577Z,9.52
2017-12-25T00:58:23.114Z,9.51
2017-12-25T01:00:50.572Z,9.50
2017-12-25T01:03:18.027Z,9.47
2017-12-25T01:05:45.484Z,9.45
2017-12-25T01:08:12.934Z,9.44
2017-12-25T01:10:40.402Z,9.43
2017-12-25T01:13:07.862Z,9.38
2017-12-25T01:15:36.214Z,9.37
2017-12-25T01:18:03.671Z,9.40
2017-12-25T01:20:31.137Z,9.29
2017-12-25T01:22:58.595Z,9.33
2017-12-25T01:25:26.078Z,9.32
2017-12-25T01:27:53.583Z,9.32
2017-12-25T01:30:21.046Z,9.31
2017-12-25T01:32:48.635Z,9.29
2017-12-25T01:35:16.108Z,9.29
2017-12-25T01:37:43.555Z,9.28
2017-12-25T01:40:11.016Z,9.22
2017-12-25T01:42:38.476Z,9.21
2017-12-25T01:45:05.953Z,9.20
2017-12-25T01:47:33.414Z,9.14
2017-12-25T01:50:00.876Z,9.10
2017-12-25T01:52:28.354Z,9.15
2017-12-25T01:54:55.799Z,9.12
2017-12-25T01:57:27.858Z,9.03
2017-12-25T02:02:52.906Z,8.95
2017-12-25T02:05:35.734Z,8.89
2017-12-25T02:08:05.895Z,8.86
2017-12-25T02:10:33.437Z,8.78
2017-12-25T02:13:01.002Z,8.69
2017-12-25T02:15:28.506Z,8.70
2017-12-25T02:17:55.953Z,8.57
2017-12-25T02:20:23.405Z,8.47
2017-12-25T02:22:50.849Z,8.47
2017-12-25T02:25:18.307Z,8.31
2017-12-25T02:27:45.758Z,8.31
2017-12-25T02:30:13.237Z,8.23
2017-12-25T02:32:40.740Z,8.20
2017-12-25T02:35:08.303Z,8.16
2017-12-25T02:37:35.922Z,8.15
2017-12-25T02:40:03.932Z,8.12
2017-12-25T02:42:31.401Z,8.12
2017-12-25T02:44:58.872Z,8.15
2017-12-25T02:47:26.312Z,8.12
2017-12-25T02:49:53.771Z,8.21
2017-12-25T02:52:21.274Z,8.21
2017-12-25T02:54:48.826Z,8.24
2017-12-25T02:57:16.306Z,8.31
2017-12-25T02:59:43.761Z,8.37
2017-12-25T03:02:11.222Z,8.41
2017-12-25T03:04:38.672Z,8.47
2017-12-25T03:07:06.138Z,8.53
2017-12-25T03:09:33.599Z,8.55
2017-12-25T03:12:01.069Z,8.59
2017-12-25T03:14:28.551Z,8.54
2017-12-25T03:16:56.004Z,8.60
2017-12-25T03:19:24.756Z,8.62
2017-12-25T03:21:52.265Z,8.58
2017-12-25T03:24:19.707Z,8.63
2017-12-25T03:26:47.173Z,8.66
2017-12-25T03:29:14.714Z,8.66
2017-12-25T03:31:42.147Z,8.65
2017-12-25T03:34:09.604Z,8.67
2017-12-25T03:36:37.070Z,8.64
2017-12-25T03:39:05.295Z,8.72
2017-12-25T03:41:32.818Z,8.64
2017-12-25T03:44:00.296Z,8.73
2017-12-25T03:46:27.763Z,8.68
2017-12-25T03:48:55.216Z,8.72
2017-12-25T03:51:22.674Z,8.66
2017-12-25T03:53:50.170Z,8.61
2017-12-25T03:56:17.642Z,8.61
2017-12-25T03:58:45.085Z,8.62
2017-12-25T04:01:12.547Z,8.61
2017-12-25T04:03:40.037Z,8.59
2017-12-25T04:06:07.484Z,8.59
2017-12-25T04:08:34.947Z,8.60
2017-12-25T04:11:02.420Z,8.60
2017-12-25T04:13:29.880Z,8.61
2017-12-25T04:15:57.329Z,8.61
2017-12-25T04:18:24.792Z,8.58
2017-12-25T04:20:56.494Z,8.55
2017-12-25T04:23:23.972Z,8.57
2017-12-25T04:25:51.410Z,8.53
2017-12-25T04:28:18.873Z,8.51
2017-12-25T04:30:46.443Z,8.45
2017-12-25T04:33:13.890Z,8.47
2017-12-25T04:35:41.354Z,8.51
2017-12-25T04:38:08.806Z,8.49
2017-12-25T04:40:36.265Z,8.53
2017-12-25T04:43:03.729Z,8.54
2017-12-25T04:45:31.196Z,8.46
2017-12-25T04:47:58.719Z,8.45
2017-12-25T04:50:26.183Z,8.41
2017-12-25T04:52:53.651Z,8.44
2017-12-25T04:55:21.121Z,8.41
2017-12-25T04:57:48.682Z,8.45
2017-12-25T05:00:16.178Z,8.49
2017-12-25T05:02:43.639Z,8.45
2017-12-25T05:05:11.090Z,8.36
2017-12-25T05:07:38.588Z,8.33
2017-12-25T05:10:06.049Z,8.28
2017-12-25T05:12:33.625Z,8.32
2017-12-25T05:15:01.084Z,8.33
2017-12-25T05:17:28.561Z,8.36
2017-12-25T05:19:56.026Z,8.35
2017-12-25T05:22:23.492Z,8.30
2017-12-25T05:24:50.940Z,8.35
2017-12-25T05:27:18.412Z,8.34
2017-12-25T05:29:45.876Z,8.28
2017-12-25T05:32:13.318Z,8.27
2017-12-25T05:34:40.857Z,8.28
2017-12-25T05:37:08.279Z,8.33
2017-12-25T05:39:35.733Z,8.30
2017-12-25T05:42:03.204Z,8.31
2017-12-25T05:44:30.683Z,8.31
2017-12-25T05:46:58.138Z,8.35
2017-12-25T05:49:25.582Z,8.33
2017-12-25T05:51:53.040Z,8.28
2017-12-25T05:54:20.504Z,8.23
2017-12-25T05:56:47.964Z,8.19
2017-12-25T05:59:15.462Z,8.16
2017-12-25T06:01:42.923Z,8.18
2017-12-25T06:04:10.368Z,8.14
2017-12-25T06:06:37.834Z,8.18
2017-12-25T06:09:05.313Z,8.16
2017-12-25T06:11:32.767Z,8.18
2017-12-25T06:14:00.290Z,8.10
2017-12-25T06:16:27.761Z,8.15
2017-12-25T06:18:55.217Z,8.05
2017-12-25T06:21:22.658Z,8.04
2017-12-25T06:23:50.135Z,8.06
2017-12-25T06:26:17.568Z,8.01
2017-12-25T06:28:45.030Z,8.05
2017-12-25T06:31:12.489Z,8.04
2017-12-25T06:33:39.932Z,8.04
2017-12-25T06:36:07.409Z,7.98
2017-12-25T06:38:34.861Z,7.93
2017-12-25T06:41:02.354Z,7.94
2017-12-25T06:43:29.802Z,7.92
2017-12-25T06:45:57.293Z,7.93
2017-12-25T06:48:24.756Z,7.96
2017-12-25T06:50:52.230Z,7.95
2017-12-25T06:53:19.669Z,7.93
2017-12-25T06:55:47.129Z,7.95
2017-12-25T06:58:14.751Z,7.93
2017-12-25T07:00:42.227Z,7.88
2017-12-25T07:03:09.705Z,7.90
2017-12-25T07:05:37.210Z,7.87
2017-12-25T07:08:04.671Z,7.82
2017-12-25T07:10:32.120Z,7.83
2017-12-25T07:12:59.597Z,7.80
2017-12-25T07:15:27.047Z,7.83
2017-12-25T07:17:55.394Z,7.81
2017-12-25T07:20:22.968Z,7.78
2017-12-25T07:22:50.450Z,7.73
2017-12-25T07:25:17.956Z,7.80
2017-12-25T07:27:45.397Z,7.77
2017-12-25T07:30:12.863Z,7.78
2017-12-25T07:32:40.307Z,7.72
2017-12-25T07:35:07.774Z,7.75
2017-12-25T07:37:35.240Z,7.79
2017-12-25T07:40:02.692Z,7.73
2017-12-25T07:42:30.145Z,7.71
2017-12-25T07:44:57.584Z,7.67
2017-12-25T07:47:25.040Z,7.69
2017-12-25T07:49:52.483Z,7.67
2017-12-25T07:52:19.969Z,7.68
2017-12-25T07:54:47.411Z,7.64
2017-12-25T07:57:14.884Z,7.63
2017-12-25T07:59:42.341Z,7.62
2017-12-25T08:02:09.812Z,7.58
2017-12-25T08:04:37.255Z,7.56
2017-12-25T08:07:04.704Z,7.63
2017-12-25T08:09:32.167Z,7.59
2017-12-25T08:11:59.626Z,7.62
2017-12-25T08:14:27.093Z,7.60
2017-12-25T08:16:54.536Z,7.51
2017-12-25T08:19:22.010Z,7.53
2017-12-25T08:21:49.453Z,7.48
2017-12-25T08:24:16.893Z,7.49
2017-12-25T08:26:44.365Z,7.51
2017-12-25T08:29:11.883Z,7.52
2017-12-25T08:31:39.342Z,7.55
2017-12-25T08:34:06.781Z,7.56
2017-12-25T08:36:34.238Z,7.51
2017-12-25T08:39:01.758Z,7.45
2017-12-25T08:41:29.244Z,7.47
2017-12-25T08:43:56.694Z,7.53
2017-12-25T08:46:24.145Z,7.55
2017-12-25T08:48:51.601Z,7.52
2017-12-25T08:51:19.111Z,7.50
2017-12-25T08:53:46.567Z,7.50
2017-12-25T08:56:14.014Z,7.47
2017-12-25T08:58:41.521Z,7.42
2017-12-25T09:01:08.974Z,7.48
2017-12-25T09:03:36.430Z,7.48
2017-12-25T09:06:04.161Z,7.40
2017-12-25T09:08:31.715Z,7.48
2017-12-25T09:10:59.158Z,7.45
2017-12-25T09:13:26.607Z,7.48
2017-12-25T09:15:54.056Z,7.48
2017-12-25T09:18:21.488Z,7.39
2017-12-25T09:20:48.950Z,7.39
2017-12-25T09:23:16.397Z,7.37
2017-12-25T09:25:43.906Z,7.35
2017-12-25T09:28:11.369Z,7.30
2017-12-25T09:30:38.819Z,7.28
2017-12-25T09:33:06.488Z,7.26
2017-12-25T09:35:33.989Z,7.31
2017-12-25T09:38:01.468Z,7.28
2017-12-25T09:40:28.955Z,7.30
2017-12-25T09:42:56.394Z,7.37
2017-12-25T09:45:24.139Z,7.29
2017-12-25T09:47:51.632Z,7.25
2017-12-25T09:50:19.072Z,7.28
2017-12-25T09:52:46.532Z,7.25
2017-12-25T09:55:13.973Z,7.18
2017-12-25T09:57:41.545Z,7.13
2017-12-25T10:00:09.006Z,7.16
2017-12-25T10:02:36.704Z,7.18
2017-12-25T10:05:04.904Z,7.13
2017-12-25T10:07:32.452Z,7.10
2017-12-25T10:09:59.897Z,7.11
2017-12-25T10:12:27.343Z,7.06
2017-12-25T10:14:54.828Z,7.08
2017-12-25T10:17:22.277Z,7.11
2017-12-25T10:19:49.796Z,7.15
2017-12-25T10:22:17.233Z,7.10
2017-12-25T10:24:44.923Z,7.07
2017-12-25T10:27:12.425Z,7.11
2017-12-25T10:29:39.888Z,7.10
2017-12-25T10:32:07.459Z,7.13
2017-12-25T10:34:35.235Z,7.09
2017-12-25T10:37:02.685Z,7.20
2017-12-25T10:39:30.443Z,7.16
2017-12-25T10:41:57.921Z,7.04
2017-12-25T10:44:25.369Z,7.01
2017-12-25T10:46:52.852Z,7.08
2017-12-25T10:49:20.301Z,7.01
2017-12-25T10:51:47.764Z,7.08
2017-12-25T10:54:15.214Z,7.06
2017-12-25T10:56:42.685Z,7.03
2017-12-25T10:59:10.132Z,7.10
2017-12-25T11:01:37.606Z,7.00
2017-12-25T11:04:05.092Z,7.06
2017-12-25T11:06:32.544Z,7.07
2017-12-25T11:09:00.008Z,7.10
2017-12-25T11:11:27.461Z,7.17
2017-12-25T11:13:54.919Z,7.13
2017-12-25T11:16:22.364Z,7.20
2017-12-25T11:18:49.840Z,7.27
2017-12-25T11:21:17.341Z,7.16
2017-12-25T11:23:44.863Z,7.19
2017-12-25T11:26:12.433Z,7.22
2017-12-25T11:28:39.889Z,7.17
2017-12-25T11:31:07.340Z,7.16
2017-12-25T11:33:34.864Z,7.21
2017-12-25T11:36:02.315Z,7.38
2017-12-25T11:38:29.789Z,7.28
2017-12-25T11:40:57.393Z,7.25
2017-12-25T11:43:24.841Z,7.25
2017-12-25T11:45:52.401Z,7.25
2017-12-25T11:48:19.889Z,7.37
2017-12-25T11:50:47.366Z,7.37
2017-12-25T11:53:14.829Z,7.38
2017-12-25T11:55:42.274Z,7.30
2017-12-25T11:58:09.756Z,7.32
2017-12-25T12:00:37.200Z,7.31
2017-12-25T12:03:04.670Z,7.26
2017-12-25T12:05:32.134Z,7.31
2017-12-25T12:07:59.631Z,7.33
2017-12-25T12:10:27.092Z,7.33
2017-12-25T12:12:54.563Z,7.36
2017-12-25T12:15:22.000Z,7.31
2017-12-25T12:17:49.501Z,7.25
2017-12-25T12:20:19.125Z,7.32
2017-12-25T12:22:46.608Z,7.26
2017-12-25T12:25:14.085Z,7.33
2017-12-25T12:27:41.548Z,7.33
2017-12-25T12:30:09.002Z,7.32
2017-12-25T12:32:36.492Z,7.30
2017-12-25T12:35:04.756Z,7.47
2017-12-25T12:37:32.250Z,7.51
2017-12-25T12:39:59.744Z,7.47
2017-12-25T12:42:27.188Z,7.47
2017-12-25T12:44:54.646Z,7.56
2017-12-25T12:47:22.105Z,7.56
2017-12-25T12:49:49.543Z,7.56
2017-12-25T12:52:17.007Z,7.57
2017-12-25T12:54:44.547Z,8.15
2017-12-25T12:57:12.017Z,8.62
2017-12-25T12:59:39.465Z,8.61
2017-12-25T13:02:06.957Z,8.88
2017-12-25T13:04:34.417Z,9.10
2017-12-25T13:07:01.863Z,9.54
2017-12-25T13:09:29.323Z,10.08
2017-12-25T13:11:56.786Z,10.50
2017-12-25T13:14:24.372Z,10.78
2017-12-25T13:16:51.844Z,10.52
2017-12-25T13:19:19.307Z,10.72
2017-12-25T13:21:46.762Z,10.46
2017-12-25T13:24:14.256Z,10.53
2017-12-25T13:26:41.712Z,10.91
2017-12-25T13:29:09.169Z,10.63
2017-12-25T13:31:36.733Z,10.44
2017-12-25T13:34:05.018Z,10.49
2017-12-25T13:36:32.483Z,10.10
2017-12-25T13:38:59.953Z,10.18
2017-12-25T13:41:27.423Z,9.95
2017-12-25T13:43:54.895Z,9.91
2017-12-25T13:46:22.351Z,10.18
2017-12-25T13:48:49.801Z,10.15
2017-12-25T13:51:17.357Z,10.35
2017-12-25T13:53:44.815Z,10.21
2017-12-25T13:56:12.277Z,10.24
2017-12-25T13:58:39.779Z,10.12
2017-12-25T14:01:07.247Z,10.22
2017-12-25T14:03:34.713Z,10.19
2017-12-25T14:06:02.170Z,10.11
2017-12-25T14:08:29.639Z,10.13
2017-12-25T14:10:57.099Z,10.05
2017-12-25T14:13:24.801Z,9.57
2017-12-25T14:15:52.252Z,9.54
2017-12-25T14:18:19.695Z,9.41
2017-12-25T14:20:47.158Z,9.35
2017-12-25T14:23:14.616Z,9.41
2017-12-25T14:25:42.084Z,9.17
2017-12-25T14:28:09.572Z,9.09
2017-12-25T14:30:37.053Z,8.96
2017-12-25T14:33:04.497Z,8.66
2017-12-25T14:35:32.049Z,8.61
2017-12-25T14:37:59.499Z,8.41
2017-12-25T14:40:27.016Z,8.59
2017-12-25T14:42:54.446Z,8.39
2017-12-25T14:45:21.960Z,8.25
2017-12-25T14:47:49.450Z,7.96
2017-12-25T14:50:16.986Z,7.92
2017-12-25T14:52:44.545Z,7.64
2017-12-25T14:55:12.014Z,7.44
2017-12-25T14:57:39.483Z,7.18
2017-12-25T15:00:06.956Z,6.92
2017-12-25T15:02:34.431Z,6.79
2017-12-25T15:05:01.960Z,6.67
2017-12-25T15:07:29.523Z,6.54
2017-12-25T15:09:56.980Z,6.36
2017-12-25T15:12:24.448Z,6.29
2017-12-25T15:14:51.946Z,6.21
2017-12-25T15:17:19.392Z,6.08
2017-12-25T15:19:46.845Z,5.96
2017-12-25T15:22:14.354Z,5.88
2017-12-25T15:24:41.872Z,5.72
2017-12-25T15:27:09.320Z,5.60
2017-12-25T15:29:36.861Z,5.49
2017-12-25T15:32:04.303Z,5.37
2017-12-25T15:34:31.807Z,5.27
2017-12-25T15:36:59.277Z,5.12
2017-12-25T15:39:26.727Z,4.98
2017-12-25T15:41:54.179Z,4.84
2017-12-25T15:44:21.707Z,4.70
2017-12-25T15:46:49.171Z,4.62
2017-12-25T15:49:16.634Z,4.52
2017-12-25T15:51:44.216Z,4.43
2017-12-25T15:54:11.725Z,4.35
2017-12-25T15:56:39.175Z,4.26
2017-12-25T15:59:06.639Z,4.15
2017-12-25T16:01:34.078Z,4.18
2017-12-25T16:04:01.592Z,4.08
2017-12-25T16:06:29.032Z,4.01
2017-12-25T16:08:56.486Z,3.94
2017-12-25T16:11:23.971Z,3.86
2017-12-25T16:13:51.422Z,3.80
2017-12-25T16:16:18.912Z,3.76
2017-12-25T16:18:46.693Z,3.70
2017-12-25T16:21:14.156Z,3.61
2017-12-25T16:23:41.618Z,3.54
2017-12-25T16:26:09.109Z,3.50
2017-12-25T16:28:36.575Z,3.52
2017-12-25T16:31:04.063Z,3.46
2017-12-25T16:33:31.517Z,3.40
2017-12-25T16:35:59.102Z,3.37
2017-12-25T16:38:26.602Z,3.31
2017-12-25T16:40:54.154Z,3.25
2017-12-25T16:43:21.619Z,3.24
2017-12-25T16:45:49.078Z,3.17
2017-12-25T16:48:16.546Z,3.13
2017-12-25T16:50:44.032Z,3.13
2017-12-25T16:53:11.477Z,3.15
2017-12-25T16:55:38.952Z,3.22
2017-12-25T16:58:06.432Z,3.18
2017-12-25T17:00:33.875Z,3.13
2017-12-25T17:03:01.402Z,3.12
2017-12-25T17:05:28.936Z,3.10
2017-12-25T17:07:56.410Z,3.05
2017-12-25T17:10:23.917Z,3.00
2017-12-25T17:12:51.376Z,2.95
2017-12-25T17:15:18.884Z,2.96
2017-12-25T17:17:46.391Z,2.97
2017-12-25T17:20:13.868Z,2.93
2017-12-25T17:22:41.359Z,2.90
2017-12-25T17:25:08.950Z,2.87
2017-12-25T17:27:36.522Z,2.86
2017-12-25T17:30:04.013Z,2.84
2017-12-25T17:32:31.472Z,2.82
2017-12-25T17:34:59.100Z,2.81
2017-12-25T17:37:26.620Z,2.75
2017-12-25T17:39:54.086Z,2.78
2017-12-25T17:42:21.559Z,2.72
2017-12-25T17:44:49.038Z,2.69
2017-12-25T17:47:16.509Z,2.63
2017-12-25T17:49:43.989Z,2.61
2017-12-25T17:52:11.524Z,2.52
2017-12-25T17:54:38.998Z,2.51
2017-12-25T17:57:06.637Z,2.47
2017-12-25T17:59:34.105Z,2.46
2017-12-25T18:02:01.561Z,2.41
2017-12-25T18:04:29.066Z,2.40
2017-12-25T18:06:56.569Z,2.36
2017-12-25T18:09:24.014Z,2.29
2017-12-25T18:11:51.481Z,2.30
2017-12-25T18:14:18.933Z,2.26
2017-12-25T18:16:46.412Z,2.19
2017-12-25T18:19:13.911Z,2.18
2017-12-25T18:21:41.361Z,2.12
2017-12-25T18:24:08.826Z,2.09
2017-12-25T18:26:36.340Z,2.08
2017-12-25T18:29:03.793Z,2.04
2017-12-25T18:31:31.242Z,2.05
2017-12-25T18:33:58.773Z,2.03
2017-12-25T18:36:26.332Z,2.09
2017-12-25T18:38:53.793Z,2.16
2017-12-25T18:41:21.266Z,2.15
2017-12-25T18:43:48.795Z,2.22
2017-12-25T18:46:16.316Z,2.17
2017-12-25T18:48:43.776Z,2.14
2017-12-25T18:51:11.240Z,2.18
2017-12-25T18:53:38.722Z,2.11
2017-12-25T18:56:06.232Z,2.20
2017-12-25T18:58:33.726Z,2.23
2017-12-25T19:01:01.182Z,2.33
2017-12-25T19:03:28.657Z,2.32
2017-12-25T19:05:56.131Z,2.28
2017-12-25T19:08:23.597Z,2.29
2017-12-25T19:10:51.128Z,2.17
2017-12-25T19:13:18.590Z,2.44
2017-12-25T19:15:46.047Z,2.97
2017-12-25T19:18:16.207Z,2.85
2017-12-25T19:20:45.167Z,2.78
2017-12-25T19:23:12.646Z,3.04
2017-12-25T19:25:40.165Z,2.98
2017-12-25T19:28:07.729Z,3.06
2017-12-25T19:30:35.329Z,3.30
2017-12-25T19:33:02.852Z,3.05
2017-12-25T19:35:30.356Z,3.74
2017-12-25T19:37:57.860Z,3.73
2017-12-25T19:40:25.308Z,3.68
2017-12-25T19:42:52.756Z,3.17
2017-12-25T19:45:20.358Z,3.24
2017-12-25T19:47:47.807Z,3.03
2017-12-25T19:50:15.296Z,2.81
2017-12-25T19:52:43.088Z,3.17
2017-12-25T19:55:10.619Z,2.82
2017-12-25T19:57:38.081Z,2.52
2017-12-25T20:00:06.441Z,2.24
2017-12-25T20:02:33.953Z,2.00
2017-12-25T20:05:01.455Z,1.86
2017-12-25T20:07:28.972Z,1.68
2017-12-25T20:09:56.461Z,1.56
2017-12-25T20:12:23.954Z,1.60
2017-12-25T20:14:51.402Z,1.57
2017-12-25T20:17:18.946Z,1.58
2017-12-25T20:19:46.442Z,1.46
2017-12-25T20:22:13.896Z,1.44
2017-12-25T20:24:41.873Z,1.36
2017-12-25T20:27:09.417Z,1.26
2017-12-25T20:29:36.937Z,1.18
2017-12-25T20:32:04.390Z,1.13
2017-12-25T20:34:31.955Z,1.08
2017-12-25T20:36:59.713Z,1.02
2017-12-25T20:39:27.298Z,1.04
2017-12-25T20:41:54.992Z,1.10
2017-12-25T20:44:22.557Z,1.10
2017-12-25T20:46:50.127Z,1.10
2017-12-25T20:49:17.631Z,1.20
2017-12-25T20:51:45.479Z,1.20
2017-12-25T20:54:13.004Z,1.07
2017-12-25T20:56:40.513Z,1.03
2017-12-25T20:59:08.043Z,0.98
2017-12-25T21:01:35.501Z,0.94
2017-12-25T21:04:03.006Z,0.89
2017-12-25T21:06:30.481Z,0.83
2017-12-25T21:08:57.992Z,0.87
2017-12-25T21:11:25.529Z,0.83
2017-12-25T21:13:52.987Z,0.81
2017-12-25T21:16:20.500Z,0.76
2017-12-25T21:18:48.422Z,0.71
2017-12-25T21:21:16.060Z,0.68
2017-12-25T21:23:43.627Z,0.67
2017-12-25T21:26:11.159Z,0.64
2017-12-25T21:28:38.651Z,0.64
2017-12-25T21:31:06.169Z,0.63
2017-12-25T21:33:33.682Z,0.60
2017-12-25T21:36:01.207Z,0.59
2017-12-25T21:38:28.732Z,0.62
2017-12-25T21:40:56.245Z,0.63
2017-12-25T21:43:23.851Z,0.62
2017-12-25T21:45:51.495Z,0.58
2017-12-25T21:48:19.000Z,0.59
2017-12-25T21:50:46.508Z,0.63
2017-12-25T21:53:14.019Z,0.65
2017-12-25T21:55:41.547Z,0.63
2017-12-25T21:58:09.083Z,0.75
2017-12-25T22:00:36.593Z,0.76
2017-12-25T22:03:04.112Z,0.69
2017-12-25T22:05:31.662Z,0.68
2017-12-25T22:07:59.168Z,0.67
2017-12-25T22:10:26.615Z,0.72
2017-12-25T22:12:54.140Z,0.81
2017-12-25T22:15:21.660Z,0.78
2017-12-25T22:17:49.175Z,0.74
2017-12-25T22:20:16.674Z,0.71
2017-12-25T22:22:44.290Z,0.69
2017-12-25T22:25:11.811Z,0.68
2017-12-25T22:27:39.339Z,0.63
2017-12-25T22:30:06.858Z,0.58
2017-12-25T22:32:34.464Z,0.55
2017-12-25T22:35:01.998Z,0.52
2017-12-25T22:37:29.534Z,0.58
2017-12-25T22:39:57.081Z,0.60
2017-12-25T22:42:24.584Z,0.53
2017-12-25T22:44:52.032Z,0.58
2017-12-25T22:47:19.496Z,0.55
2017-12-25T22:49:46.994Z,0.63
2017-12-25T22:52:14.555Z,0.59
2017-12-25T22:54:42.906Z,0.57
2017-12-25T22:57:10.445Z,0.62
2017-12-25T22:59:38.180Z,0.79
2017-12-25T23:02:05.687Z,0.80
2017-12-25T23:04:33.194Z,0.96
2017-12-25T23:07:00.673Z,0.94
2017-12-25T23:09:28.149Z,1.05
2017-12-25T23:11:55.630Z,1.12
2017-12-25T23:14:23.138Z,1.17
2017-12-25T23:16:50.587Z,1.35
2017-12-25T23:19:18.095Z,1.29
2017-12-25T23:21:45.640Z,1.60
2017-12-25T23:24:13.190Z,1.75
2017-12-25T23:26:40.700Z,2.04
2017-12-25T23:29:08.216Z,2.26
2017-12-25T23:31:35.717Z,2.32
2017-12-25T23:34:03.332Z,2.31
2017-12-25T23:36:30.838Z,2.32
2017-12-25T23:38:58.424Z,2.45
2017-12-25T23:41:25.929Z,2.58
2017-12-25T23:43:53.410Z,2.55
2017-12-25T23:46:20.940Z,2.61
2017-12-25T23:48:48.447Z,2.65
2017-12-25T23:51:15.957Z,2.72
2017-12-25T23:53:43.500Z,2.90
2017-12-25T23:56:10.995Z,3.07
2017-12-25T23:58:38.507Z,3.28
